Terminal Aerodrome Forecast
Issued by NWS Wakefield, VA

Home | Current Version | Previous Version | Text Only | Print | Product List | Glossary On
Versions: 1 2 3 4 5 6 7 8 9 10 11 12 13 14
000
FTUS41 KAKQ 161700
TAFRIC
TAF
KRIC 161740Z 1618/1718 01008KT P6SM BKN050
     FM170300 04005KT P6SM BKN040 OVC070=

USA.gov is the U.S. government's official web portal to all federal, state and local government web resources and services.